Time;durP1;ratioP1;P1;durP2;ratioP2;P2;SDS_P1;SDS_P2;PMS_P1;PMS_P2;Temp;Humidity;BMP_temperature;BMP_pressure;BME280_temperature;BME280_humidity;BME280_pressure;Samples;Min_cycle;Max_cycle;Signal;HPM_P1;HPM_P2
2022/10/22 05:00:30;;;;;;;1.80;0.83;;;14.10;97.20;;;;;;1728052;28;20176;-70
2022/10/22 05:01:23;;;;;;;1.63;0.80;;;14.10;97.20;;;;;;1728055;28;20662;-71
2022/10/22 05:02:15;;;;;;;2.03;0.68;;;14.10;97.20;;;;;;1727980;28;20196;-70
2022/10/22 05:03:06;;;;;;;5.32;0.88;;;14.10;97.20;;;;;;1727999;28;20605;-70
2022/10/22 05:03:58;;;;;;;3.38;1.08;;;14.10;97.20;;;;;;1727902;28;20203;-71
2022/10/22 05:04:50;;;;;;;1.40;0.70;;;14.10;97.20;;;;;;1728041;28;20201;-70
2022/10/22 05:05:41;;;;;;;1.35;0.70;;;14.10;97.20;;;;;;1727919;28;20212;-71
2022/10/22 05:06:34;;;;;;;1.43;0.70;;;14.10;97.20;;;;;;1727729;28;20196;-70
2022/10/22 05:07:25;;;;;;;1.27;0.73;;;14.10;97.20;;;;;;1726312;28;20211;-70
2022/10/22 05:08:17;;;;;;;2.23;0.80;;;14.10;97.20;;;;;;1719139;28;20197;-71
2022/10/22 05:09:11;;;;;;;1.35;0.73;;;14.10;97.20;;;;;;1717319;28;20210;-70
2022/10/22 05:10:03;;;;;;;0.98;0.63;;;14.10;97.20;;;;;;1718986;28;20201;-71
2022/10/22 05:10:54;;;;;;;1.35;0.60;;;14.10;97.20;;;;;;1721039;28;20610;-69
2022/10/22 05:11:47;;;;;;;3.27;0.80;;;14.10;97.20;;;;;;1721206;28;20645;-69
2022/10/22 05:12:38;;;;;;;1.05;0.80;;;14.10;97.20;;;;;;1721367;28;20627;-71
2022/10/22 05:13:30;;;;;;;1.13;0.80;;;14.10;97.20;;;;;;1721149;28;20601;-69
2022/10/22 05:14:22;;;;;;;3.65;0.90;;;14.10;97.20;;;;;;1721118;28;20687;-70
2022/10/22 05:15:14;;;;;;;1.00;0.60;;;14.00;97.20;;;;;;1721300;28;20674;-71
2022/10/22 05:16:07;;;;;;;0.70;0.60;;;14.00;97.20;;;;;;1721180;28;20659;-69
2022/10/22 05:16:59;;;;;;;3.38;0.80;;;14.00;97.20;;;;;;1721056;28;20667;-69
2022/10/22 05:17:50;;;;;;;5.38;0.95;;;14.00;97.20;;;;;;1718329;28;20690;-69
2022/10/22 05:18:43;;;;;;;1.93;0.70;;;14.00;97.20;;;;;;1714399;28;20671;-69
2022/10/22 05:19:34;;;;;;;1.55;0.68;;;14.00;97.20;;;;;;1714474;28;20236;-69
2022/10/22 05:20:26;;;;;;;5.23;1.13;;;14.00;97.20;;;;;;1714364;28;20284;-69
2022/10/22 05:21:19;;;;;;;1.10;0.80;;;14.00;97.20;;;;;;1713751;28;20216;-69
2022/10/22 05:22:11;;;;;;;1.67;0.82;;;14.00;97.20;;;;;;1714418;28;20206;-69
2022/10/22 05:23:01;;;;;;;1.73;0.77;;;14.00;97.20;;;;;;1714453;28;20206;-69
2022/10/22 05:23:54;;;;;;;1.00;0.70;;;14.00;97.20;;;;;;1715626;28;20204;-69
2022/10/22 05:24:45;;;;;;;3.72;1.00;;;14.00;97.20;;;;;;1714354;28;20210;-69
2022/10/22 05:25:37;;;;;;;1.00;0.83;;;14.00;97.20;;;;;;1714436;28;20209;-69
2022/10/22 05:26:28;;;;;;;2.05;0.80;;;14.00;97.20;;;;;;1714083;28;20213;-69
2022/10/22 05:27:20;;;;;;;1.48;0.70;;;14.00;97.20;;;;;;1714330;28;20198;-69
2022/10/22 05:28:11;;;;;;;1.75;0.63;;;14.00;97.20;;;;;;1714410;28;20198;-69
2022/10/22 05:29:02;;;;;;;1.63;0.80;;;14.00;97.20;;;;;;1714356;28;20202;-69
2022/10/22 05:29:53;;;;;;;2.92;0.95;;;14.00;97.20;;;;;;1714374;28;20286;-69
2022/10/22 05:30:53;;;;;;;4.50;0.80;;;14.00;97.20;;;;;;1714226;28;20301;-69
2022/10/22 05:31:46;;;;;;;1.00;0.70;;;14.00;97.20;;;;;;1719767;28;20583;-70
2022/10/22 05:32:37;;;;;;;3.13;1.05;;;14.10;97.20;;;;;;1721009;28;20204;-69
2022/10/22 05:33:30;;;;;;;3.70;0.80;;;14.00;97.20;;;;;;1716931;28;20202;-69
2022/10/22 05:34:21;;;;;;;1.45;0.75;;;14.00;97.20;;;;;;1714315;28;20202;-69
2022/10/22 05:35:12;;;;;;;4.05;1.58;;;14.00;97.20;;;;;;1714491;28;20205;-69
2022/10/22 05:36:05;;;;;;;4.33;1.00;;;14.00;97.20;;;;;;1714261;28;20201;-69
2022/10/22 05:36:57;;;;;;;2.00;0.95;;;14.00;97.20;;;;;;1713971;28;20441;-69
2022/10/22 05:37:48;;;;;;;1.00;0.80;;;14.00;97.20;;;;;;1714229;28;20205;-69
2022/10/22 05:38:38;;;;;;;2.40;0.77;;;14.00;97.20;;;;;;1714334;28;20208;-69
2022/10/22 05:39:30;;;;;;;1.87;0.87;;;14.00;97.20;;;;;;1714269;28;20284;-69
2022/10/22 05:40:21;;;;;;;4.40;0.70;;;14.00;97.20;;;;;;1714287;28;20206;-69
2022/10/22 05:41:17;;;;;;;1.77;1.10;;;14.00;97.20;;;;;;1715110;28;20200;-69
2022/10/22 05:42:08;;;;;;;0.80;0.70;;;14.00;97.20;;;;;;1721004;28;20558;-69
2022/10/22 05:43:00;;;;;;;0.80;0.70;;;14.00;97.20;;;;;;1721003;28;20223;-69
2022/10/22 05:43:53;;;;;;;1.10;0.70;;;14.00;97.20;;;;;;1720944;28;20741;-69
2022/10/22 05:44:44;;;;;;;1.42;0.60;;;14.00;97.20;;;;;;1720893;28;20228;-69
2022/10/22 05:45:35;;;;;;;1.38;0.70;;;14.00;97.20;;;;;;1720920;28;20208;-69
2022/10/22 05:46:29;;;;;;;2.25;0.73;;;14.10;97.20;;;;;;1720601;28;20201;-69
2022/10/22 05:47:21;;;;;;;2.17;0.68;;;14.00;97.20;;;;;;1720920;28;20212;-69
2022/10/22 05:48:13;;;;;;;0.80;0.70;;;14.00;97.20;;;;;;1720864;28;20204;-69
2022/10/22 05:49:05;;;;;;;1.48;0.75;;;14.00;97.20;;;;;;1720873;28;20237;-69
2022/10/22 05:49:57;;;;;;;2.03;1.25;;;14.00;97.20;;;;;;1720974;28;20197;-69
2022/10/22 05:50:49;;;;;;;2.55;0.98;;;14.00;97.20;;;;;;1720798;28;20718;-69
2022/10/22 05:51:41;;;;;;;2.33;0.80;;;14.00;97.20;;;;;;1720885;28;20600;-69
2022/10/22 05:52:32;;;;;;;1.58;0.60;;;14.10;97.20;;;;;;1720927;28;20208;-69
2022/10/22 05:53:24;;;;;;;4.80;1.03;;;14.10;97.20;;;;;;1715849;28;20200;-69
2022/10/22 05:54:17;;;;;;;1.10;0.70;;;14.10;97.20;;;;;;1714229;28;20691;-69
2022/10/22 05:55:09;;;;;;;3.75;0.90;;;14.10;97.20;;;;;;1714205;28;20205;-69
2022/10/22 05:56:00;;;;;;;2.28;0.60;;;14.10;97.20;;;;;;1714132;28;20213;-69
2022/10/22 05:56:53;;;;;;;1.80;0.80;;;14.10;97.20;;;;;;1713831;28;20284;-69
2022/10/22 05:57:43;;;;;;;7.32;1.13;;;14.10;97.20;;;;;;1714144;28;20197;-69
2022/10/22 05:58:36;;;;;;;1.53;0.80;;;14.10;97.20;;;;;;1714268;28;20202;-69
2022/10/22 05:59:27;;;;;;;2.35;0.60;;;14.10;97.20;;;;;;1714123;28;20668;-69
2022/10/22 06:00:19;;;;;;;1.13;0.70;;;14.10;97.20;;;;;;1714195;28;20660;-69
2022/10/22 06:01:12;;;;;;;2.35;0.73;;;14.10;97.20;;;;;;1714098;28;20691;-69
2022/10/22 06:02:04;;;;;;;1.95;0.70;;;14.20;97.20;;;;;;1714228;28;20710;-69
2022/10/22 06:02:56;;;;;;;1.40;0.60;;;14.20;97.20;;;;;;1714129;28;20209;-69
2022/10/22 06:03:48;;;;;;;1.33;0.73;;;14.20;97.20;;;;;;1714133;28;20672;-69
2022/10/22 06:04:39;;;;;;;1.80;0.70;;;14.20;97.20;;;;;;1714195;28;20209;-69
2022/10/22 06:05:30;;;;;;;1.00;0.57;;;14.20;97.20;;;;;;1714190;28;20194;-69
2022/10/22 06:06:26;;;;;;;2.95;0.70;;;14.20;97.20;;;;;;1714815;28;20683;-69
2022/10/22 06:07:18;;;;;;;1.38;0.80;;;14.20;97.20;;;;;;1714156;28;20230;-69
2022/10/22 06:08:10;;;;;;;2.70;0.80;;;14.20;97.20;;;;;;1714242;28;20217;-69
2022/10/22 06:09:05;;;;;;;1.55;0.95;;;14.20;97.20;;;;;;1714137;28;20204;-69
2022/10/22 06:09:55;;;;;;;1.60;0.80;;;14.30;97.20;;;;;;1713985;28;20590;-70
2022/10/22 06:10:47;;;;;;;1.53;0.80;;;14.30;97.20;;;;;;1713348;28;20222;-69
2022/10/22 06:11:38;;;;;;;1.02;0.70;;;14.30;97.20;;;;;;1714150;28;20210;-69
2022/10/22 06:12:30;;;;;;;2.63;0.90;;;14.30;97.20;;;;;;1714132;28;20683;-69
2022/10/22 06:13:21;;;;;;;1.60;0.70;;;14.30;97.20;;;;;;1714055;28;20448;-69
2022/10/22 06:14:14;;;;;;;0.90;0.70;;;14.30;97.20;;;;;;1714148;28;20198;-69
2022/10/22 06:15:06;;;;;;;1.08;0.77;;;14.30;97.20;;;;;;1714077;28;20586;-69
2022/10/22 06:15:58;;;;;;;0.95;0.70;;;14.30;97.20;;;;;;1714064;28;20197;-69
2022/10/22 06:16:50;;;;;;;1.48;0.88;;;14.30;97.20;;;;;;1713765;28;20198;-69
2022/10/22 06:17:41;;;;;;;2.60;0.70;;;14.30;97.20;;;;;;1714035;28;20197;-68
2022/10/22 06:18:33;;;;;;;2.47;0.90;;;14.30;97.20;;;;;;1715019;28;20725;-68
2022/10/22 06:19:26;;;;;;;1.85;0.90;;;14.30;97.20;;;;;;1720768;28;20251;-68
2022/10/22 06:20:16;;;;;;;0.95;0.73;;;14.30;97.20;;;;;;1720742;28;20229;-69
2022/10/22 06:21:10;;;;;;;2.03;1.00;;;14.30;97.20;;;;;;1720733;28;20300;-68
2022/10/22 06:22:02;;;;;;;1.88;0.70;;;14.30;97.20;;;;;;1719706;28;20441;-68
2022/10/22 06:22:53;;;;;;;1.95;0.93;;;14.30;97.20;;;;;;1717240;28;20654;-68
2022/10/22 06:23:44;;;;;;;1.40;0.88;;;14.30;97.20;;;;;;1720544;28;20209;-68
2022/10/22 06:24:36;;;;;;;4.53;0.60;;;14.40;97.20;;;;;;1720793;28;20213;-68
2022/10/22 06:25:27;;;;;;;1.10;0.63;;;14.30;97.20;;;;;;1720751;28;20460;-68
2022/10/22 06:26:18;;;;;;;2.70;0.70;;;14.40;97.20;;;;;;1720496;28;20205;-68
2022/10/22 06:27:09;;;;;;;1.10;0.60;;;14.40;97.20;;;;;;1720818;28;20579;-68
2022/10/22 06:28:01;;;;;;;3.13;0.70;;;14.40;97.20;;;;;;1720697;28;20558;-68
2022/10/22 06:28:52;;;;;;;4.43;0.80;;;14.40;97.20;;;;;;1720760;28;20689;-68
2022/10/22 06:29:43;;;;;;;2.13;0.97;;;14.40;97.20;;;;;;1720711;28;20705;-68
2022/10/22 06:30:36;;;;;;;1.52;0.73;;;14.40;97.20;;;;;;1720577;28;20228;-68
2022/10/22 06:31:28;;;;;;;2.25;0.68;;;14.40;97.20;;;;;;1720121;28;20660;-68
2022/10/22 06:32:19;;;;;;;1.85;0.60;;;14.40;97.20;;;;;;1716801;28;20208;-70
2022/10/22 06:33:11;;;;;;;1.10;0.60;;;14.40;97.20;;;;;;1714277;28;20221;-70
2022/10/22 06:34:03;;;;;;;1.60;0.68;;;14.40;97.20;;;;;;1716223;28;20210;-70
2022/10/22 06:34:55;;;;;;;1.92;0.80;;;14.40;97.20;;;;;;1720718;28;20201;-70
2022/10/22 06:35:47;;;;;;;2.45;0.70;;;14.40;97.20;;;;;;1720615;28;20219;-69
2022/10/22 06:36:39;;;;;;;1.48;0.60;;;14.40;97.20;;;;;;1720334;28;20228;-69
2022/10/22 06:37:30;;;;;;;2.17;0.77;;;14.40;97.20;;;;;;1720570;28;20240;-70
2022/10/22 06:38:22;;;;;;;5.10;0.70;;;14.40;97.20;;;;;;1720803;28;20208;-69
2022/10/22 06:39:15;;;;;;;1.25;0.60;;;14.40;97.20;;;;;;1720633;28;20205;-70
2022/10/22 06:40:08;;;;;;;3.78;0.80;;;14.40;97.20;;;;;;1720629;28;20232;-71
2022/10/22 06:41:02;;;;;;;2.80;1.25;;;14.40;97.20;;;;;;1720604;28;20706;-70
2022/10/22 06:41:54;;;;;;;1.13;0.80;;;14.40;97.20;;;;;;1720660;28;20234;-70
2022/10/22 06:42:44;;;;;;;2.40;0.70;;;14.40;97.20;;;;;;1720695;28;20695;-71
2022/10/22 06:43:36;;;;;;;5.63;1.00;;;14.40;97.20;;;;;;1720743;28;20693;-70
2022/10/22 06:44:27;;;;;;;1.23;0.70;;;14.40;97.20;;;;;;1720718;28;20200;-70
2022/10/22 06:45:19;;;;;;;1.00;0.70;;;14.40;97.20;;;;;;1720707;28;20208;-70
2022/10/22 06:46:10;;;;;;;1.30;0.70;;;14.50;97.20;;;;;;1720349;28;20228;-69
2022/10/22 06:47:02;;;;;;;1.50;0.60;;;14.50;97.20;;;;;;1720628;28;20201;-70
2022/10/22 06:47:54;;;;;;;1.38;0.70;;;14.50;97.20;;;;;;1720672;28;20667;-70
2022/10/22 06:48:49;;;;;;;2.20;0.98;;;14.50;97.20;;;;;;1720631;28;20197;-70
2022/10/22 06:49:41;;;;;;;1.75;0.80;;;14.50;97.20;;;;;;1720637;28;20212;-70
2022/10/22 06:50:34;;;;;;;1.00;0.60;;;14.50;97.20;;;;;;1717347;28;20254;-70
2022/10/22 06:51:26;;;;;;;1.00;0.75;;;14.50;97.20;;;;;;1713890;28;20214;-69
2022/10/22 06:52:18;;;;;;;0.90;0.70;;;14.50;97.20;;;;;;1717348;28;20204;-70
2022/10/22 06:53:08;;;;;;;1.30;0.80;;;14.50;97.20;;;;;;1720670;28;20227;-70
2022/10/22 06:54:00;;;;;;;1.10;0.60;;;14.50;97.20;;;;;;1720676;28;20201;-70
2022/10/22 06:54:51;;;;;;;1.10;0.52;;;14.50;97.20;;;;;;1720640;28;20585;-72
2022/10/22 06:55:42;;;;;;;4.73;0.77;;;14.50;97.20;;;;;;1720547;28;20219;-69
2022/10/22 06:56:33;;;;;;;1.98;0.68;;;14.50;97.20;;;;;;1720416;28;20663;-69
2022/10/22 06:57:25;;;;;;;2.30;0.80;;;14.50;97.20;;;;;;1720528;28;20576;-69
2022/10/22 06:58:16;;;;;;;2.75;0.63;;;14.50;97.20;;;;;;1720614;28;20201;-69
2022/10/22 06:59:07;;;;;;;1.00;0.60;;;14.50;97.20;;;;;;1720522;28;20201;-69
2022/10/22 06:59:58;;;;;;;2.30;0.90;;;14.60;97.20;;;;;;1720529;28;20205;-69
2022/10/22 07:00:50;;;;;;;2.53;0.70;;;14.60;97.20;;;;;;1720524;28;20687;-69
2022/10/22 07:01:41;;;;;;;1.35;0.80;;;14.60;97.20;;;;;;1720556;28;20201;-69
2022/10/22 07:02:33;;;;;;;2.97;0.70;;;14.60;97.20;;;;;;1720772;28;20201;-69
2022/10/22 07:03:23;;;;;;;1.00;0.65;;;14.60;97.20;;;;;;1720630;28;20445;-69
2022/10/22 07:04:15;;;;;;;1.93;0.70;;;14.60;97.20;;;;;;1716325;28;20190;-69
2022/10/22 07:05:08;;;;;;;2.72;0.82;;;14.60;97.20;;;;;;1716232;28;20586;-69
2022/10/22 07:06:01;;;;;;;2.58;0.70;;;14.60;97.20;;;;;;1720669;28;20197;-69
2022/10/22 07:06:53;;;;;;;1.67;0.70;;;14.60;97.20;;;;;;1720338;28;20215;-68
2022/10/22 07:07:45;;;;;;;2.17;0.63;;;14.60;97.20;;;;;;1720507;28;20193;-68
2022/10/22 07:08:37;;;;;;;2.05;1.02;;;14.60;97.20;;;;;;1720578;28;20205;-69
2022/10/22 07:09:29;;;;;;;1.65;0.60;;;14.60;97.20;;;;;;1720600;28;20682;-68
2022/10/22 07:10:19;;;;;;;2.08;0.70;;;14.60;97.20;;;;;;1720419;28;20204;-69
2022/10/22 07:11:13;;;;;;;2.30;1.10;;;14.60;97.20;;;;;;1720596;28;20208;-68
2022/10/22 07:12:05;;;;;;;1.30;1.00;;;14.60;97.20;;;;;;1720626;28;20579;-69
2022/10/22 07:12:57;;;;;;;2.78;0.70;;;14.60;97.20;;;;;;1720504;28;20570;-68
2022/10/22 07:13:48;;;;;;;1.20;0.75;;;14.60;97.20;;;;;;1720613;28;20204;-68
2022/10/22 07:14:40;;;;;;;1.10;1.00;;;14.60;97.20;;;;;;1720617;28;20201;-68
2022/10/22 07:15:31;;;;;;;1.20;0.90;;;14.60;97.20;;;;;;1720542;28;20660;-68
2022/10/22 07:16:23;;;;;;;1.43;1.20;;;14.60;97.20;;;;;;1720360;28;20791;-68
2022/10/22 07:17:13;;;;;;;1.83;1.00;;;14.60;97.20;;;;;;1720451;28;20212;-69
2022/10/22 07:18:05;;;;;;;5.90;1.00;;;14.60;97.20;;;;;;1720491;28;20201;-69
2022/10/22 07:18:56;;;;;;;1.40;1.10;;;14.60;97.20;;;;;;1720531;28;20201;-69
2022/10/22 07:19:48;;;;;;;1.93;1.07;;;14.60;97.20;;;;;;1719284;28;20193;-68
2022/10/22 07:20:40;;;;;;;1.75;1.00;;;14.60;97.20;;;;;;1713795;28;20236;-69
2022/10/22 07:21:31;;;;;;;1.10;0.95;;;14.60;97.20;;;;;;1713900;28;20625;-69
2022/10/22 07:22:22;;;;;;;1.30;1.10;;;14.60;97.20;;;;;;1714909;28;20562;-68
2022/10/22 07:23:14;;;;;;;1.40;0.73;;;14.60;97.20;;;;;;1715149;28;20223;-68
2022/10/22 07:24:05;;;;;;;1.52;0.80;;;14.60;97.20;;;;;;1715142;28;20229;-69
2022/10/22 07:24:57;;;;;;;3.70;0.90;;;14.60;97.20;;;;;;1715223;28;20198;-68
2022/10/22 07:25:48;;;;;;;1.30;1.08;;;14.60;97.20;;;;;;1715247;28;20210;-69
2022/10/22 07:26:39;;;;;;;1.73;1.00;;;14.60;97.20;;;;;;1714755;28;20284;-69
2022/10/22 07:27:30;;;;;;;1.27;0.80;;;14.70;97.20;;;;;;1715102;28;20205;-68
2022/10/22 07:28:22;;;;;;;1.73;0.90;;;14.70;97.20;;;;;;1715054;28;20204;-68
2022/10/22 07:29:14;;;;;;;1.13;1.02;;;14.70;97.20;;;;;;1715219;28;20221;-69
2022/10/22 07:30:07;;;;;;;1.23;0.82;;;14.70;97.20;;;;;;1715077;28;20572;-68
2022/10/22 07:30:58;;;;;;;6.30;1.25;;;14.70;97.20;;;;;;1714927;28;20620;-69
2022/10/22 07:31:50;;;;;;;1.50;0.90;;;14.70;97.20;;;;;;1715085;28;20620;-68
2022/10/22 07:32:40;;;;;;;1.13;0.80;;;14.70;97.20;;;;;;1715058;28;20460;-69
2022/10/22 07:33:32;;;;;;;2.97;1.00;;;14.70;97.20;;;;;;1716052;28;20277;-68
2022/10/22 07:34:23;;;;;;;0.90;0.80;;;14.70;97.20;;;;;;1721758;28;20208;-69
2022/10/22 07:35:15;;;;;;;1.77;0.77;;;14.70;97.20;;;;;;1721814;28;20284;-68
2022/10/22 07:36:09;;;;;;;2.00;0.90;;;14.70;97.20;;;;;;1721741;28;20202;-69
2022/10/22 07:37:01;;;;;;;3.20;0.90;;;14.70;97.20;;;;;;1721733;28;20212;-68
2022/10/22 07:37:52;;;;;;;1.13;0.90;;;14.70;97.20;;;;;;1721660;28;20212;-68
2022/10/22 07:38:44;;;;;;;0.80;0.80;;;14.70;97.20;;;;;;1721839;28;20197;-69
2022/10/22 07:39:35;;;;;;;3.67;1.23;;;14.70;97.20;;;;;;1721729;28;20288;-69
2022/10/22 07:40:27;;;;;;;3.33;0.90;;;14.70;97.20;;;;;;1721585;28;20225;-69
2022/10/22 07:41:18;;;;;;;4.65;1.40;;;14.70;97.20;;;;;;1721780;28;20836;-68
2022/10/22 07:42:10;;;;;;;1.57;0.90;;;14.70;97.20;;;;;;1721729;28;20569;-68
2022/10/22 07:43:01;;;;;;;3.38;1.00;;;14.80;97.20;;;;;;1721735;28;20440;-69
2022/10/22 07:43:52;;;;;;;0.97;0.80;;;14.80;97.20;;;;;;1721752;28;20193;-69
2022/10/22 07:44:43;;;;;;;2.30;1.00;;;14.80;97.20;;;;;;1721670;28;20476;-68
2022/10/22 07:45:35;;;;;;;1.67;1.00;;;14.80;97.20;;;;;;1721753;28;20203;-68
2022/10/22 07:46:26;;;;;;;1.60;0.93;;;14.80;97.20;;;;;;1721397;28;20212;-68
2022/10/22 07:47:18;;;;;;;0.90;0.75;;;14.80;97.20;;;;;;1721635;28;20204;-69
2022/10/22 07:48:08;;;;;;;1.25;0.80;;;14.90;97.20;;;;;;1721633;28;20590;-68
2022/10/22 07:49:00;;;;;;;1.53;0.77;;;14.90;97.20;;;;;;1721705;28;20216;-68
2022/10/22 07:49:51;;;;;;;2.22;0.88;;;14.90;97.20;;;;;;1719995;28;20682;-71
2022/10/22 07:50:43;;;;;;;2.20;1.00;;;14.90;97.20;;;;;;1721639;28;20570;-68
2022/10/22 07:51:35;;;;;;;1.35;0.75;;;14.90;97.20;;;;;;1721716;28;20201;-68
2022/10/22 07:52:27;;;;;;;3.70;0.80;;;14.90;97.20;;;;;;1721599;28;20244;-68
2022/10/22 07:53:18;;;;;;;1.52;0.70;;;14.90;97.20;;;;;;1721637;28;20232;-68
2022/10/22 07:54:09;;;;;;;1.63;0.90;;;14.90;97.20;;;;;;1721596;28;20198;-69
2022/10/22 07:55:00;;;;;;;4.93;1.00;;;15.00;97.20;;;;;;1721639;28;20440;-69
2022/10/22 07:55:52;;;;;;;1.47;0.87;;;15.00;97.20;;;;;;1721601;28;20205;-69
2022/10/22 07:56:43;;;;;;;2.45;0.80;;;15.00;97.20;;;;;;1721273;28;20690;-69
2022/10/22 07:57:35;;;;;;;0.90;0.60;;;15.00;97.20;;;;;;1721748;28;20631;-69
2022/10/22 07:58:26;;;;;;;1.00;0.80;;;15.00;97.20;;;;;;1721617;28;20223;-68
2022/10/22 07:59:18;;;;;;;1.97;0.83;;;15.00;97.20;;;;;;1721673;28;20291;-69
2022/10/22 08:00:10;;;;;;;1.90;0.80;;;15.00;97.20;;;;;;1721519;28;20201;-69
2022/10/22 08:01:04;;;;;;;1.00;0.60;;;15.10;97.20;;;;;;1721408;28;20235;-68
2022/10/22 08:01:55;;;;;;;1.65;0.70;;;15.10;97.20;;;;;;1721739;28;20224;-69
2022/10/22 08:02:46;;;;;;;0.93;0.83;;;15.10;97.20;;;;;;1721657;28;20205;-69
2022/10/22 08:03:37;;;;;;;0.90;0.80;;;15.10;97.20;;;;;;1716316;28;20205;-69
2022/10/22 08:04:29;;;;;;;1.40;0.93;;;15.10;97.20;;;;;;1714856;28;20201;-69
2022/10/22 08:05:20;;;;;;;1.27;0.90;;;15.10;97.20;;;;;;1714835;28;20719;-67
2022/10/22 08:06:13;;;;;;;1.23;0.60;;;15.10;97.20;;;;;;1714715;28;20664;-68
2022/10/22 08:07:05;;;;;;;4.28;0.98;;;15.10;97.20;;;;;;1714792;28;20221;-69
2022/10/22 08:07:57;;;;;;;1.30;0.73;;;15.10;97.20;;;;;;1714830;28;20660;-68
2022/10/22 08:08:48;;;;;;;1.15;0.90;;;15.10;97.20;;;;;;1714904;28;20210;-69
2022/10/22 08:09:39;;;;;;;3.20;0.93;;;15.10;97.20;;;;;;1714856;28;20204;-68
2022/10/22 08:10:31;;;;;;;1.33;0.90;;;15.10;97.20;;;;;;1714867;28;20212;-68
2022/10/22 08:11:22;;;;;;;1.10;0.85;;;15.10;97.20;;;;;;1714812;28;20201;-68
2022/10/22 08:12:13;;;;;;;2.55;0.90;;;15.10;97.20;;;;;;1714966;28;20687;-69
2022/10/22 08:13:05;;;;;;;2.90;0.90;;;15.10;97.20;;;;;;1714876;28;20586;-68
2022/10/22 08:13:57;;;;;;;1.08;0.98;;;15.10;97.20;;;;;;1714885;28;20449;-68
2022/10/22 08:14:48;;;;;;;1.55;0.80;;;15.10;97.20;;;;;;1714865;28;20578;-69
2022/10/22 08:15:40;;;;;;;1.30;0.97;;;15.10;97.20;;;;;;1714847;28;20220;-69
2022/10/22 08:16:31;;;;;;;3.80;0.95;;;15.10;97.20;;;;;;1714498;28;20464;-68
2022/10/22 08:17:22;;;;;;;2.03;0.80;;;15.10;97.20;;;;;;1714739;28;20212;-71
2022/10/22 08:18:13;;;;;;;1.73;1.02;;;15.10;97.20;;;;;;1714734;28;20220;-68
2022/10/22 08:19:05;;;;;;;1.80;0.83;;;15.10;97.20;;;;;;1715842;28;20280;-69
2022/10/22 08:19:55;;;;;;;2.13;0.80;;;15.10;97.20;;;;;;1721514;28;20205;-69
2022/10/22 08:20:47;;;;;;;3.50;1.00;;;15.10;97.20;;;;;;1721296;28;20232;-68
2022/10/22 08:21:39;;;;;;;1.67;0.90;;;15.10;97.20;;;;;;1721563;28;20209;-68
2022/10/22 08:22:32;;;;;;;2.45;0.70;;;15.10;97.20;;;;;;1721541;28;20211;-68
2022/10/22 08:23:22;;;;;;;1.15;0.80;;;15.10;97.20;;;;;;1721481;28;20205;-68
2022/10/22 08:24:14;;;;;;;2.60;1.77;;;15.20;97.20;;;;;;1721528;28;20203;-69
2022/10/22 08:25:06;;;;;;;1.80;1.00;;;15.20;97.20;;;;;;1721430;28;20440;-68
2022/10/22 08:25:58;;;;;;;1.40;0.95;;;15.20;97.20;;;;;;1721442;28;20197;-69
2022/10/22 08:26:49;;;;;;;4.75;0.80;;;15.30;97.20;;;;;;1721099;28;20258;-68
2022/10/22 08:27:40;;;;;;;1.73;1.00;;;15.40;97.20;;;;;;1721387;28;20260;-68
2022/10/22 08:28:34;;;;;;;1.50;1.10;;;15.40;97.20;;;;;;1721491;28;20578;-68
2022/10/22 08:29:26;;;;;;;1.10;0.90;;;15.50;97.20;;;;;;1721392;28;20202;-69
2022/10/22 08:30:17;;;;;;;1.50;1.40;;;15.60;97.20;;;;;;1721277;28;20201;-69
2022/10/22 08:31:10;;;;;;;3.20;1.20;;;15.70;97.20;;;;;;1721423;28;20201;-69
2022/10/22 08:32:01;;;;;;;1.92;0.80;;;15.80;97.20;;;;;;1721450;28;20663;-69
2022/10/22 08:32:53;;;;;;;1.63;0.90;;;15.90;97.20;;;;;;1721475;28;20643;-68
2022/10/22 08:33:44;;;;;;;1.67;1.15;;;16.00;97.20;;;;;;1720332;28;20571;-68
2022/10/22 08:34:35;;;;;;;1.17;1.00;;;16.00;97.20;;;;;;1720586;28;20225;-68
2022/10/22 08:35:26;;;;;;;1.13;0.80;;;16.10;97.20;;;;;;1720638;28;20666;-68
2022/10/22 08:36:18;;;;;;;1.10;1.00;;;16.20;97.20;;;;;;1721169;28;20589;-68
2022/10/22 08:37:13;;;;;;;2.42;1.10;;;16.30;97.20;;;;;;1721348;28;20691;-68
2022/10/22 08:38:06;;;;;;;3.55;0.90;;;16.30;97.20;;;;;;1717315;28;20233;-68
2022/10/22 08:38:56;;;;;;;2.20;1.10;;;16.40;97.20;;;;;;1714724;28;20217;-68
2022/10/22 08:39:48;;;;;;;1.20;1.00;;;16.40;97.20;;;;;;1714714;28;20288;-68
2022/10/22 08:40:39;;;;;;;1.08;0.90;;;16.50;97.20;;;;;;1714485;28;20222;-68
2022/10/22 08:41:35;;;;;;;3.63;1.27;;;16.50;97.20;;;;;;1714780;28;20210;-68
2022/10/22 08:42:49;;;;;;;1.88;1.00;;;16.50;97.20;;;;;;1714652;28;20205;-68
2022/10/22 08:43:59;;;;;;;1.35;1.10;;;16.60;97.20;;;;;;1714698;28;20633;-70
2022/10/22 08:45:02;;;;;;;4.55;1.45;;;16.60;97.20;;;;;;1714659;28;20213;-68
2022/10/22 08:46:06;;;;;;;1.08;0.95;;;16.70;97.20;;;;;;1714794;28;20194;-70
2022/10/22 08:47:24;;;;;;;1.83;0.88;;;16.70;97.20;;;;;;1714412;28;20210;-68
2022/10/22 08:48:34;;;;;;;1.65;1.10;;;16.80;97.20;;;;;;1714803;28;20569;-68
2022/10/22 08:49:28;;;;;;;1.08;0.98;;;16.80;97.20;;;;;;1714663;28;20209;-69
2022/10/22 08:50:24;;;;;;;1.98;0.90;;;16.90;97.20;;;;;;1714631;28;20201;-70
2022/10/22 08:51:18;;;;;;;2.60;1.30;;;16.90;97.20;;;;;;1719509;28;20198;-69
2022/10/22 08:52:13;;;;;;;3.10;0.82;;;16.90;97.20;;;;;;1721374;28;20588;-69
2022/10/22 08:53:11;;;;;;;1.00;0.90;;;17.00;97.20;;;;;;1721255;28;20201;-70
2022/10/22 08:54:16;;;;;;;2.30;0.80;;;17.00;97.20;;;;;;1721271;28;20218;-69
2022/10/22 08:55:12;;;;;;;2.90;0.95;;;17.00;97.20;;;;;;1721141;28;20209;-69
2022/10/22 08:56:04;;;;;;;13.57;2.00;;;17.10;97.20;;;;;;1721320;28;20221;-70
2022/10/22 08:57:09;;;;;;;1.25;0.90;;;17.10;97.20;;;;;;1720973;28;20240;-70
2022/10/22 08:58:08;;;;;;;1.58;0.90;;;17.10;97.20;;;;;;1721245;28;20198;-69
2022/10/22 08:59:07;;;;;;;3.17;1.10;;;17.20;97.20;;;;;;1721197;28;20209;-69
2022/10/22 09:00:05;;;;;;;2.88;0.80;;;17.20;97.20;;;;;;1721378;28;20938;-70
2022/10/22 09:00:59;;;;;;;1.95;1.00;;;17.30;97.20;;;;;;1720973;28;20232;-69
2022/10/22 09:01:53;;;;;;;0.90;0.80;;;17.30;97.20;;;;;;1721169;28;20193;-69
2022/10/22 09:02:58;;;;;;;1.52;1.20;;;17.40;97.20;;;;;;1721253;28;20208;-69
2022/10/22 09:03:54;;;;;;;3.45;1.10;;;17.40;97.20;;;;;;1721350;28;20609;-70
2022/10/22 09:04:53;;;;;;;2.22;1.02;;;17.50;97.20;;;;;;1721273;28;20236;-71
2022/10/22 09:05:53;;;;;;;2.17;1.30;;;17.50;97.20;;;;;;1721283;28;20197;-70
2022/10/22 09:06:44;;;;;;;3.17;1.35;;;17.50;97.20;;;;;;1719237;28;20730;-70
2022/10/22 09:07:36;;;;;;;2.10;1.50;;;17.60;97.20;;;;;;1721221;28;20621;-70
2022/10/22 09:08:28;;;;;;;1.73;1.63;;;17.70;97.20;;;;;;1721179;28;20478;-70
2022/10/22 09:09:21;;;;;;;1.17;0.95;;;17.70;97.20;;;;;;1721310;28;20695;-70
2022/10/22 09:10:12;;;;;;;1.40;1.17;;;17.80;97.20;;;;;;1721118;28;20622;-71
2022/10/22 09:11:23;;;;;;;1.43;1.33;;;17.80;97.20;;;;;;1721166;28;20259;-70
2022/10/22 09:12:16;;;;;;;13.25;2.70;;;17.90;97.20;;;;;;1721247;28;20451;-70
2022/10/22 09:13:10;;;;;;;2.70;2.33;;;17.90;97.20;;;;;;1721246;28;20201;-71
2022/10/22 09:14:01;;;;;;;2.95;1.63;;;18.00;97.20;;;;;;1721483;28;20373;-70
2022/10/22 09:14:53;;;;;;;1.33;0.80;;;18.00;97.20;;;;;;1721224;28;20201;-71
2022/10/22 09:15:47;;;;;;;1.90;1.70;;;18.10;97.20;;;;;;1721098;28;20209;-70
2022/10/22 09:16:53;;;;;;;1.63;1.52;;;18.20;97.20;;;;;;1720896;28;20206;-71
2022/10/22 09:17:56;;;;;;;3.13;0.90;;;18.30;97.20;;;;;;1721214;28;20201;-71
2022/10/22 09:19:00;;;;;;;2.28;1.40;;;18.30;97.20;;;;;;1721224;28;20209;-71
2022/10/22 09:20:01;;;;;;;1.50;1.33;;;18.40;97.20;;;;;;1720820;28;20935;-71
2022/10/22 09:20:56;;;;;;;2.22;1.55;;;18.40;97.20;;;;;;1720762;28;20214;-71
2022/10/22 09:21:56;;;;;;;1.20;1.08;;;18.50;97.20;;;;;;1721215;28;20213;-71
2022/10/22 09:22:59;;;;;;;2.10;1.00;;;18.50;97.20;;;;;;1719333;28;20280;-71
2022/10/22 09:24:01;;;;;;;1.60;0.90;;;18.60;97.20;;;;;;1720027;28;20201;-70
2022/10/22 09:24:58;;;;;;;1.88;1.00;;;18.70;97.20;;;;;;1720939;28;20794;-71
2022/10/22 09:25:51;;;;;;;2.30;0.98;;;18.70;97.20;;;;;;1720675;28;20205;-70
2022/10/22 09:26:43;;;;;;;1.10;0.98;;;18.80;97.20;;;;;;1720831;28;20199;-70
2022/10/22 09:27:34;;;;;;;1.20;0.88;;;18.90;97.20;;;;;;1720791;28;20235;-70
2022/10/22 09:28:26;;;;;;;3.40;0.90;;;19.00;97.20;;;;;;1720973;28;20200;-71
2022/10/22 09:29:23;;;;;;;2.35;1.20;;;19.10;97.20;;;;;;1720994;28;20951;-71
2022/10/22 09:30:17;;;;;;;1.42;1.30;;;19.20;97.20;;;;;;1720983;28;20205;-71
2022/10/22 09:31:10;;;;;;;1.60;0.85;;;19.20;97.20;;;;;;1721177;28;20212;-70
2022/10/22 09:32:02;;;;;;;3.58;1.00;;;19.30;97.20;;;;;;1720978;28;20292;-71
2022/10/22 09:33:00;;;;;;;1.60;0.82;;;19.40;97.20;;;;;;1720932;28;20205;-71
2022/10/22 09:33:52;;;;;;;3.95;1.13;;;19.40;97.20;;;;;;1720922;28;20201;-71
2022/10/22 09:34:43;;;;;;;2.85;1.20;;;19.50;97.20;;;;;;1721005;28;20344;-71
2022/10/22 09:35:44;;;;;;;1.27;1.10;;;19.60;97.20;;;;;;1721035;28;20287;-71